FYWH/WDH METAR and TAF weather

Enter ICAO airport designator
Station Type Date Time Source
FYWH METAR 2018/10/22 16:00 UTC NOAA

FYWH 221600Z 02012KT 9999 FEW035 21/09 Q1023 NOSIG


Station Type Date Time Source
FYWH Decoded METAR 2018/10/22 16:00 UTC NOAA

J. G. Strijdom, Namibia (FYWH) 22-29S 017-28E 1700M
Oct 22, 2018 - 12:00 PM EDT / 2018.10.22 1600 UTC
Wind: from the NNE (020 degrees) at 14 MPH (12 KT):0
Visibility: greater than 7 mile(s):0
Sky conditions: mostly clear
Temperature: 69 F (21 C)
Dew Point: 48 F (9 C)
Relative Humidity: 46%
Pressure (altimeter): 30.21 in. Hg (1023 hPa)
ob: FYWH 221600Z 02012KT 9999 FEW035 21/09 Q1023 NOSIG
cycle: 16

Station Type Date Time Source
FYWH TAF 2018/10/22 18:47 UTC NOAA

TAF FYWH 221600Z 2218/2318 03013KT 9999 -TSRA FEW040CB
BECMG 2220/2222 09008KT NSW SCT030
BECMG 2309/2311 02015KT BKN040
TEMPO 2312/2316 -TSRA SCT040CB


Example: see airport list